sensor_id;sensor_type;location;lat;lon;timestamp;pressure;altitude;pressure_sealevel;temperature;humidity
52927;BME280;40783;49.710;8.842;2023-02-20T00:00:36;100155.31;;;7.87;100.00
52927;BME280;40783;49.710;8.842;2023-02-20T00:03:04;100153.84;;;7.83;100.00
52927;BME280;40783;49.710;8.842;2023-02-20T00:05:29;100152.88;;;7.84;100.00
52927;BME280;40783;49.710;8.842;2023-02-20T00:07:55;100140.25;;;7.75;100.00
52927;BME280;40783;49.710;8.842;2023-02-20T00:10:22;100127.97;;;7.85;100.00
52927;BME280;40783;49.710;8.842;2023-02-20T00:12:48;100133.38;;;7.84;100.00
52927;BME280;40783;49.710;8.842;2023-02-20T00:15:14;100141.03;;;7.89;100.00
52927;BME280;40783;49.710;8.842;2023-02-20T00:17:43;100125.53;;;7.82;100.00
52927;BME280;40783;49.710;8.842;2023-02-20T00:20:12;100118.72;;;7.78;100.00
52927;BME280;40783;49.710;8.842;2023-02-20T00:22:38;100116.03;;;7.67;100.00
52927;BME280;40783;49.710;8.842;2023-02-20T00:25:05;100120.09;;;7.60;100.00
52927;BME280;40783;49.710;8.842;2023-02-20T00:27:30;100109.38;;;7.61;100.00
52927;BME280;40783;49.710;8.842;2023-02-20T00:29:58;100106.81;;;7.60;100.00
52927;BME280;40783;49.710;8.842;2023-02-20T00:32:23;100111.38;;;7.57;100.00
52927;BME280;40783;49.710;8.842;2023-02-20T00:34:48;100105.56;;;7.52;100.00
52927;BME280;40783;49.710;8.842;2023-02-20T00:37:13;100118.84;;;7.41;100.00
52927;BME280;40783;49.710;8.842;2023-02-20T00:39:39;100118.09;;;7.39;100.00
52927;BME280;40783;49.710;8.842;2023-02-20T00:42:06;100112.78;;;7.39;100.00
52927;BME280;40783;49.710;8.842;2023-02-20T00:44:31;100110.22;;;7.37;100.00
52927;BME280;40783;49.710;8.842;2023-02-20T00:46:57;100122.56;;;7.38;100.00
52927;BME280;40783;49.710;8.842;2023-02-20T00:49:22;100119.44;;;7.45;100.00
52927;BME280;40783;49.710;8.842;2023-02-20T00:51:47;100123.91;;;7.44;100.00
52927;BME280;40783;49.710;8.842;2023-02-20T00:54:13;100126.34;;;7.47;100.00
52927;BME280;40783;49.710;8.842;2023-02-20T00:56:38;100120.88;;;7.37;100.00
52927;BME280;40783;49.710;8.842;2023-02-20T00:59:05;100119.16;;;7.36;100.00
52927;BME280;40783;49.710;8.842;2023-02-20T01:01:33;100120.03;;;7.37;100.00
52927;BME280;40783;49.710;8.842;2023-02-20T01:03:58;100123.88;;;7.33;100.00
52927;BME280;40783;49.710;8.842;2023-02-20T01:06:26;100127.06;;;7.38;100.00
52927;BME280;40783;49.710;8.842;2023-02-20T01:08:51;100120.25;;;7.34;100.00
52927;BME280;40783;49.710;8.842;2023-02-20T01:11:16;100120.94;;;7.24;100.00
52927;BME280;40783;49.710;8.842;2023-02-20T01:13:42;100111.91;;;7.14;100.00
52927;BME280;40783;49.710;8.842;2023-02-20T01:16:07;100125.66;;;7.08;100.00
52927;BME280;40783;49.710;8.842;2023-02-20T01:18:32;100123.06;;;6.95;100.00
52927;BME280;40783;49.710;8.842;2023-02-20T01:20:57;100127.19;;;6.99;100.00
52927;BME280;40783;49.710;8.842;2023-02-20T01:23:25;100120.19;;;6.98;100.00
52927;BME280;40783;49.710;8.842;2023-02-20T01:25:50;100115.16;;;6.93;100.00
52927;BME280;40783;49.710;8.842;2023-02-20T01:28:18;100103.19;;;6.88;100.00
52927;BME280;40783;49.710;8.842;2023-02-20T01:30:43;100113.59;;;6.91;100.00
52927;BME280;40783;49.710;8.842;2023-02-20T01:33:08;100107.41;;;6.90;100.00
52927;BME280;40783;49.710;8.842;2023-02-20T01:35:34;100103.78;;;6.91;100.00
52927;BME280;40783;49.710;8.842;2023-02-20T01:38:01;100113.59;;;6.91;100.00
52927;BME280;40783;49.710;8.842;2023-02-20T01:40:30;100108.50;;;6.88;100.00
52927;BME280;40783;49.710;8.842;2023-02-20T01:42:58;100110.41;;;6.86;100.00
52927;BME280;40783;49.710;8.842;2023-02-20T01:47:50;100105.13;;;6.73;100.00
52927;BME280;40783;49.710;8.842;2023-02-20T01:50:16;100100.59;;;6.62;100.00
52927;BME280;40783;49.710;8.842;2023-02-20T01:52:43;100099.59;;;6.63;100.00
52927;BME280;40783;49.710;8.842;2023-02-20T01:55:10;100106.22;;;6.57;100.00
52927;BME280;40783;49.710;8.842;2023-02-20T01:57:37;100111.75;;;6.54;100.00
52927;BME280;40783;49.710;8.842;2023-02-20T02:00:11;100102.59;;;6.58;100.00
52927;BME280;40783;49.710;8.842;2023-02-20T02:02:38;100107.09;;;6.58;100.00
52927;BME280;40783;49.710;8.842;2023-02-20T02:05:06;100102.81;;;6.55;100.00
52927;BME280;40783;49.710;8.842;2023-02-20T02:07:34;100090.94;;;6.48;100.00
52927;BME280;40783;49.710;8.842;2023-02-20T02:10:07;100096.03;;;6.51;100.00
52927;BME280;40783;49.710;8.842;2023-02-20T02:12:36;100083.69;;;6.50;100.00
52927;BME280;40783;49.710;8.842;2023-02-20T02:15:02;100085.63;;;6.48;100.00
52927;BME280;40783;49.710;8.842;2023-02-20T02:17:35;100089.44;;;6.44;100.00
52927;BME280;40783;49.710;8.842;2023-02-20T02:25:32;100067.38;;;6.30;100.00
52927;BME280;40783;49.710;8.842;2023-02-20T02:38:24;100053.78;;;6.22;100.00
52927;BME280;40783;49.710;8.842;2023-02-20T02:40:58;100051.84;;;6.11;100.00
52927;BME280;40783;49.710;8.842;2023-02-20T02:46:06;100055.44;;;5.97;100.00
52927;BME280;40783;49.710;8.842;2023-02-20T02:48:40;100063.25;;;6.00;100.00
52927;BME280;40783;49.710;8.842;2023-02-20T02:51:12;100049.53;;;6.06;100.00
52927;BME280;40783;49.710;8.842;2023-02-20T02:53:40;100053.16;;;6.05;100.00
52927;BME280;40783;49.710;8.842;2023-02-20T02:56:05;100048.78;;;5.91;100.00
52927;BME280;40783;49.710;8.842;2023-02-20T02:58:46;100052.59;;;5.87;100.00
52927;BME280;40783;49.710;8.842;2023-02-20T03:01:12;100048.66;;;5.93;100.00
52927;BME280;40783;49.710;8.842;2023-02-20T03:03:42;100062.06;;;5.91;100.00
52927;BME280;40783;49.710;8.842;2023-02-20T03:06:17;100050.78;;;5.88;100.00
52927;BME280;40783;49.710;8.842;2023-02-20T03:08:54;100061.19;;;5.91;100.00
52927;BME280;40783;49.710;8.842;2023-02-20T03:11:22;100068.19;;;5.92;100.00
52927;BME280;40783;49.710;8.842;2023-02-20T03:19:06;100051.09;;;5.83;100.00
52927;BME280;40783;49.710;8.842;2023-02-20T03:21:37;100046.63;;;5.84;100.00
52927;BME280;40783;49.710;8.842;2023-02-20T03:24:06;100041.22;;;5.72;100.00
52927;BME280;40783;49.710;8.842;2023-02-20T03:26:35;100041.22;;;5.72;100.00
52927;BME280;40783;49.710;8.842;2023-02-20T03:29:07;100042.47;;;5.67;100.00
52927;BME280;40783;49.710;8.842;2023-02-20T03:32:09;100026.88;;;5.62;100.00
52927;BME280;40783;49.710;8.842;2023-02-20T03:34:45;100037.78;;;5.57;100.00
52927;BME280;40783;49.710;8.842;2023-02-20T03:37:31;100039.06;;;5.52;100.00
52927;BME280;40783;49.710;8.842;2023-02-20T03:40:17;100042.47;;;5.54;100.00
52927;BME280;40783;49.710;8.842;2023-02-20T03:43:03;100055.19;;;5.48;100.00
52927;BME280;40783;49.710;8.842;2023-02-20T03:45:48;100052.13;;;5.55;100.00
52927;BME280;40783;49.710;8.842;2023-02-20T03:48:15;100054.03;;;5.53;100.00
52927;BME280;40783;49.710;8.842;2023-02-20T03:50:43;100051.59;;;5.49;100.00
52927;BME280;40783;49.710;8.842;2023-02-20T03:53:08;100056.16;;;5.47;100.00
52927;BME280;40783;49.710;8.842;2023-02-20T03:55:34;100051.81;;;5.59;100.00
52927;BME280;40783;49.710;8.842;2023-02-20T03:57:59;100062.88;;;5.53;100.00
52927;BME280;40783;49.710;8.842;2023-02-20T04:00:28;100066.69;;;5.62;100.00
52927;BME280;40783;49.710;8.842;2023-02-20T04:02:58;100068.38;;;5.63;100.00
52927;BME280;40783;49.710;8.842;2023-02-20T04:05:25;100073.28;;;5.56;100.00
52927;BME280;40783;49.710;8.842;2023-02-20T04:10:22;100072.81;;;5.49;100.00
52927;BME280;40783;49.710;8.842;2023-02-20T04:12:49;100075.06;;;5.56;100.00
52927;BME280;40783;49.710;8.842;2023-02-20T04:15:15;100070.50;;;5.58;100.00
52927;BME280;40783;49.710;8.842;2023-02-20T04:17:49;100065.66;;;5.37;100.00
52927;BME280;40783;49.710;8.842;2023-02-20T04:20:18;100054.59;;;5.58;100.00
52927;BME280;40783;49.710;8.842;2023-02-20T04:22:46;100059.56;;;5.49;100.00
52927;BME280;40783;49.710;8.842;2023-02-20T04:27:37;100075.66;;;5.46;100.00
52927;BME280;40783;49.710;8.842;2023-02-20T04:30:03;100067.50;;;5.49;100.00
52927;BME280;40783;49.710;8.842;2023-02-20T04:32:28;100069.00;;;5.54;100.00
52927;BME280;40783;49.710;8.842;2023-02-20T04:34:54;100067.66;;;5.61;100.00
52927;BME280;40783;49.710;8.842;2023-02-20T04:37:19;100072.00;;;5.62;100.00
52927;BME280;40783;49.710;8.842;2023-02-20T04:39:47;100072.63;;;5.53;100.00
52927;BME280;40783;49.710;8.842;2023-02-20T04:42:12;100069.44;;;5.60;100.00
52927;BME280;40783;49.710;8.842;2023-02-20T04:44:38;100064.56;;;5.54;100.00
52927;BME280;40783;49.710;8.842;2023-02-20T04:47:07;100061.91;;;5.54;100.00
52927;BME280;40783;49.710;8.842;2023-02-20T04:49:32;100064.44;;;5.56;100.00
52927;BME280;40783;49.710;8.842;2023-02-20T04:51:58;100067.50;;;5.49;100.00
52927;BME280;40783;49.710;8.842;2023-02-20T04:54:23;100062.63;;;5.43;100.00
52927;BME280;40783;49.710;8.842;2023-02-20T04:56:49;100067.41;;;5.51;100.00
52927;BME280;40783;49.710;8.842;2023-02-20T04:59:16;100077.22;;;5.36;100.00
52927;BME280;40783;49.710;8.842;2023-02-20T05:01:42;100074.94;;;5.44;100.00
52927;BME280;40783;49.710;8.842;2023-02-20T05:04:12;100074.94;;;5.44;100.00
52927;BME280;40783;49.710;8.842;2023-02-20T05:06:39;100074.19;;;5.42;100.00
52927;BME280;40783;49.710;8.842;2023-02-20T05:09:04;100074.47;;;5.25;100.00
52927;BME280;40783;49.710;8.842;2023-02-20T05:11:30;100074.47;;;5.25;100.00
52927;BME280;40783;49.710;8.842;2023-02-20T05:13:55;100070.16;;;5.09;100.00
52927;BME280;40783;49.710;8.842;2023-02-20T05:16:21;100068.06;;;5.14;100.00
52927;BME280;40783;49.710;8.842;2023-02-20T05:18:46;100074.94;;;4.89;100.00
52927;BME280;40783;49.710;8.842;2023-02-20T05:21:14;100071.91;;;4.96;100.00
52927;BME280;40783;49.710;8.842;2023-02-20T05:23:58;100072.22;;;4.91;100.00
52927;BME280;40783;49.710;8.842;2023-02-20T05:26:23;100065.81;;;5.08;100.00
52927;BME280;40783;49.710;8.842;2023-02-20T05:28:48;100063.16;;;5.08;100.00
52927;BME280;40783;49.710;8.842;2023-02-20T05:31:15;100066.34;;;5.13;100.00
52927;BME280;40783;49.710;8.842;2023-02-20T05:33:41;100066.44;;;4.84;100.00
52927;BME280;40783;49.710;8.842;2023-02-20T05:36:06;100061.66;;;5.04;100.00
52927;BME280;40783;49.710;8.842;2023-02-20T05:38:32;100068.25;;;5.11;100.00
52927;BME280;40783;49.710;8.842;2023-02-20T05:40:57;100065.06;;;5.06;100.00
52927;BME280;40783;49.710;8.842;2023-02-20T05:43:24;100057.84;;;5.08;100.00
52927;BME280;40783;49.710;8.842;2023-02-20T05:45:49;100061.00;;;5.00;100.00
52927;BME280;40783;49.710;8.842;2023-02-20T05:48:14;100054.84;;;5.00;100.00
52927;BME280;40783;49.710;8.842;2023-02-20T05:50:40;100056.56;;;5.01;100.00
52927;BME280;40783;49.710;8.842;2023-02-20T05:53:06;100053.38;;;5.09;100.00
52927;BME280;40783;49.710;8.842;2023-02-20T05:55:31;100049.94;;;4.94;100.00
52927;BME280;40783;49.710;8.842;2023-02-20T05:57:56;100048.63;;;4.86;100.00
52927;BME280;40783;49.710;8.842;2023-02-20T06:00:21;100053.88;;;4.73;100.00
52927;BME280;40783;49.710;8.842;2023-02-20T06:02:49;100062.91;;;4.71;100.00
52927;BME280;40783;49.710;8.842;2023-02-20T06:05:15;100057.53;;;4.85;100.00
52927;BME280;40783;49.710;8.842;2023-02-20T06:07:43;100055.19;;;4.81;100.00
52927;BME280;40783;49.710;8.842;2023-02-20T06:10:09;100062.00;;;4.85;100.00
52927;BME280;40783;49.710;8.842;2023-02-20T06:12:36;100064.53;;;4.86;100.00
52927;BME280;40783;49.710;8.842;2023-02-20T06:15:03;100071.16;;;4.94;100.00
52927;BME280;40783;49.710;8.842;2023-02-20T06:17:31;100055.63;;;4.87;100.00
52927;BME280;40783;49.710;8.842;2023-02-20T06:19:59;100051.41;;;4.85;100.00
52927;BME280;40783;49.710;8.842;2023-02-20T06:22:24;100057.34;;;4.88;100.00
52927;BME280;40783;49.710;8.842;2023-02-20T06:24:49;100044.34;;;4.71;100.00
52927;BME280;40783;49.710;8.842;2023-02-20T06:27:15;100051.34;;;4.72;100.00
52927;BME280;40783;49.710;8.842;2023-02-20T06:29:40;100058.88;;;4.78;100.00
52927;BME280;40783;49.710;8.842;2023-02-20T06:32:05;100056.69;;;4.85;100.00
52927;BME280;40783;49.710;8.842;2023-02-20T06:34:31;100057.94;;;4.79;100.00
52927;BME280;40783;49.710;8.842;2023-02-20T06:36:58;100060.75;;;4.90;100.00
52927;BME280;40783;49.710;8.842;2023-02-20T06:39:23;100060.75;;;4.90;100.00
52927;BME280;40783;49.710;8.842;2023-02-20T06:41:48;100065.84;;;4.94;100.00
52927;BME280;40783;49.710;8.842;2023-02-20T06:44:16;100065.84;;;4.94;100.00
52927;BME280;40783;49.710;8.842;2023-02-20T06:46:41;100067.53;;;4.95;100.00
52927;BME280;40783;49.710;8.842;2023-02-20T06:49:06;100071.75;;;4.84;100.00
52927;BME280;40783;49.710;8.842;2023-02-20T06:51:32;100068.41;;;4.95;100.00
52927;BME280;40783;49.710;8.842;2023-02-20T06:53:58;100074.56;;;4.96;100.00
52927;BME280;40783;49.710;8.842;2023-02-20T06:56:25;100072.25;;;5.04;100.00
52927;BME280;40783;49.710;8.842;2023-02-20T06:58:51;100056.47;;;5.02;100.00
52927;BME280;40783;49.710;8.842;2023-02-20T07:01:17;100056.75;;;4.98;100.00
52927;BME280;40783;49.710;8.842;2023-02-20T07:03:43;100069.25;;;4.96;100.00
52927;BME280;40783;49.710;8.842;2023-02-20T07:06:12;100063.94;;;4.96;100.00
52927;BME280;40783;49.710;8.842;2023-02-20T07:08:37;100071.63;;;5.00;100.00
52927;BME280;40783;49.710;8.842;2023-02-20T07:11:03;100075.25;;;5.12;100.00
52927;BME280;40783;49.710;8.842;2023-02-20T07:13:28;100074.13;;;5.16;100.00
52927;BME280;40783;49.710;8.842;2023-02-20T07:15:53;100074.13;;;5.16;100.00
52927;BME280;40783;49.710;8.842;2023-02-20T07:18:19;100060.25;;;5.26;100.00
52927;BME280;40783;49.710;8.842;2023-02-20T07:20:47;100065.34;;;5.29;100.00
52927;BME280;40783;49.710;8.842;2023-02-20T07:23:14;100066.63;;;5.36;100.00
52927;BME280;40783;49.710;8.842;2023-02-20T07:25:42;100071.94;;;5.36;100.00
52927;BME280;40783;49.710;8.842;2023-02-20T07:28:08;100077.44;;;5.33;100.00
52927;BME280;40783;49.710;8.842;2023-02-20T07:30:33;100075.31;;;5.38;100.00
52927;BME280;40783;49.710;8.842;2023-02-20T07:32:58;100071.94;;;5.36;100.00
52927;BME280;40783;49.710;8.842;2023-02-20T07:35:23;100076.81;;;5.42;100.00
52927;BME280;40783;49.710;8.842;2023-02-20T07:37:51;100069.22;;;5.50;100.00
52927;BME280;40783;49.710;8.842;2023-02-20T07:40:16;100064.84;;;5.49;100.00
52927;BME280;40783;49.710;8.842;2023-02-20T07:42:41;100067.09;;;5.56;100.00
52927;BME280;40783;49.710;8.842;2023-02-20T07:45:06;100075.81;;;5.58;100.00
52927;BME280;40783;49.710;8.842;2023-02-20T07:47:32;100067.66;;;5.61;100.00
52927;BME280;40783;49.710;8.842;2023-02-20T07:49:59;100072.13;;;5.73;100.00
52927;BME280;40783;49.710;8.842;2023-02-20T07:52:24;100063.75;;;5.79;100.00
52927;BME280;40783;49.710;8.842;2023-02-20T07:54:49;100059.19;;;5.82;100.00
52927;BME280;40783;49.710;8.842;2023-02-20T07:57:17;100053.75;;;5.96;100.00
52927;BME280;40783;49.710;8.842;2023-02-20T07:59:42;100067.38;;;6.04;100.00
52927;BME280;40783;49.710;8.842;2023-02-20T08:02:07;100054.84;;;6.06;100.00
52927;BME280;40783;49.710;8.842;2023-02-20T08:04:33;100056.97;;;6.27;100.00
52927;BME280;40783;49.710;8.842;2023-02-20T08:07:00;100069.47;;;6.38;100.00
52927;BME280;40783;49.710;8.842;2023-02-20T08:09:25;100065.84;;;6.52;100.00
52927;BME280;40783;49.710;8.842;2023-02-20T08:11:50;100051.38;;;6.56;100.00
52927;BME280;40783;49.710;8.842;2023-02-20T08:14:16;100050.72;;;6.65;100.00
52927;BME280;40783;49.710;8.842;2023-02-20T08:16:41;100048.16;;;6.64;100.00
52927;BME280;40783;49.710;8.842;2023-02-20T08:19:06;100053.06;;;6.57;100.00
52927;BME280;40783;49.710;8.842;2023-02-20T08:21:31;100043.19;;;6.59;100.00
52927;BME280;40783;49.710;8.842;2023-02-20T08:23:57;100044.34;;;6.55;100.00
52927;BME280;40783;49.710;8.842;2023-02-20T08:26:22;100030.34;;;6.53;100.00
52927;BME280;40783;49.710;8.842;2023-02-20T08:28:48;100039.78;;;6.57;100.00
52927;BME280;40783;49.710;8.842;2023-02-20T08:31:13;100044.78;;;6.62;100.00
52927;BME280;40783;49.710;8.842;2023-02-20T08:33:39;100035.81;;;6.76;100.00
52927;BME280;40783;49.710;8.842;2023-02-20T08:36:04;100028.56;;;6.78;100.00
52927;BME280;40783;49.710;8.842;2023-02-20T08:38:33;100032.78;;;6.80;100.00
52927;BME280;40783;49.710;8.842;2023-02-20T08:41:02;100029.19;;;6.81;100.00
52927;BME280;40783;49.710;8.842;2023-02-20T08:43:30;100015.16;;;6.79;100.00
52927;BME280;40783;49.710;8.842;2023-02-20T08:45:55;100026.41;;;6.83;100.00
52927;BME280;40783;49.710;8.842;2023-02-20T08:48:22;100015.56;;;6.86;100.00
52927;BME280;40783;49.710;8.842;2023-02-20T08:50:48;100018.84;;;6.90;100.00
52927;BME280;40783;49.710;8.842;2023-02-20T08:53:13;100020.41;;;6.92;100.00
52927;BME280;40783;49.710;8.842;2023-02-20T08:55:40;100016.91;;;6.92;100.00
52927;BME280;40783;49.710;8.842;2023-02-20T08:58:05;100017.97;;;6.89;100.00
52927;BME280;40783;49.710;8.842;2023-02-20T09:00:30;100011.97;;;6.98;100.00
52927;BME280;40783;49.710;8.842;2023-02-20T09:02:55;100014.63;;;6.98;100.00
52927;BME280;40783;49.710;8.842;2023-02-20T09:05:21;100016.09;;;7.03;100.00
52927;BME280;40783;49.710;8.842;2023-02-20T09:07:46;100013.44;;;7.03;100.00
52927;BME280;40783;49.710;8.842;2023-02-20T09:10:11;100011.56;;;7.16;100.00
52927;BME280;40783;49.710;8.842;2023-02-20T09:12:36;100014.28;;;7.27;100.00
52927;BME280;40783;49.710;8.842;2023-02-20T09:15:05;100017.22;;;7.36;100.00
52927;BME280;40783;49.710;8.842;2023-02-20T09:17:31;100010.19;;;7.35;100.00
52927;BME280;40783;49.710;8.842;2023-02-20T09:19:58;100009.25;;;7.47;100.00
52927;BME280;40783;49.710;8.842;2023-02-20T09:22:26;100003.44;;;7.53;100.00
52927;BME280;40783;49.710;8.842;2023-02-20T09:24:52;99994.25;;;7.57;100.00
52927;BME280;40783;49.710;8.842;2023-02-20T09:27:17;99994.16;;;7.70;100.00
52927;BME280;40783;49.710;8.842;2023-02-20T09:29:43;99992.63;;;7.79;100.00
52927;BME280;40783;49.710;8.842;2023-02-20T09:32:08;99981.50;;;7.85;100.00
52927;BME280;40783;49.710;8.842;2023-02-20T09:34:33;100000.63;;;7.91;100.00
52927;BME280;40783;49.710;8.842;2023-02-20T09:36:59;99985.81;;;7.98;100.00
52927;BME280;40783;49.710;8.842;2023-02-20T09:39:26;99989.25;;;7.89;100.00
52927;BME280;40783;49.710;8.842;2023-02-20T09:42:04;99993.09;;;7.84;100.00
52927;BME280;40783;49.710;8.842;2023-02-20T09:44:34;99984.72;;;7.78;100.00
52927;BME280;40783;49.710;8.842;2023-02-20T09:47:06;99986.44;;;7.79;100.00
52927;BME280;40783;49.710;8.842;2023-02-20T09:49:33;99996.94;;;7.69;100.00
52927;BME280;40783;49.710;8.842;2023-02-20T09:52:05;99985.34;;;7.81;100.00
52927;BME280;40783;49.710;8.842;2023-02-20T09:54:42;99982.09;;;7.89;100.00
52927;BME280;40783;49.710;8.842;2023-02-20T09:57:13;99980.03;;;8.04;100.00
52927;BME280;40783;49.710;8.842;2023-02-20T10:02:14;99977.00;;;8.20;100.00
52927;BME280;40783;49.710;8.842;2023-02-20T10:04:50;99977.13;;;8.19;100.00
52927;BME280;40783;49.710;8.842;2023-02-20T10:07:22;99970.09;;;8.17;100.00
52927;BME280;40783;49.710;8.842;2023-02-20T10:09:48;99974.22;;;8.22;100.00
52927;BME280;40783;49.710;8.842;2023-02-20T10:20:31;99951.66;;;8.37;100.00
52927;BME280;40783;49.710;8.842;2023-02-20T10:25:44;99937.22;;;8.40;100.00
52927;BME280;40783;49.710;8.842;2023-02-20T10:28:14;99948.25;;;8.46;100.00
52927;BME280;40783;49.710;8.842;2023-02-20T10:33:30;99951.38;;;8.52;100.00
52927;BME280;40783;49.710;8.842;2023-02-20T10:38:27;99948.19;;;8.69;100.00
52927;BME280;40783;49.710;8.842;2023-02-20T10:40:57;99942.84;;;8.81;100.00
52927;BME280;40783;49.710;8.842;2023-02-20T10:43:27;99937.44;;;8.92;100.00
52927;BME280;40783;49.710;8.842;2023-02-20T10:46:10;99931.88;;;8.95;100.00
52927;BME280;40783;49.710;8.842;2023-02-20T10:48:37;99932.69;;;8.96;100.00
52927;BME280;40783;49.710;8.842;2023-02-20T10:53:43;99941.22;;;9.11;100.00
52927;BME280;40783;49.710;8.842;2023-02-20T11:01:18;99919.38;;;9.17;100.00
52927;BME280;40783;49.710;8.842;2023-02-20T11:03:58;99913.50;;;9.23;100.00
52927;BME280;40783;49.710;8.842;2023-02-20T11:06:33;99916.19;;;9.23;100.00
52927;BME280;40783;49.710;8.842;2023-02-20T11:09:00;99917.75;;;9.26;100.00
52927;BME280;40783;49.710;8.842;2023-02-20T11:13:51;99914.94;;;9.27;100.00
52927;BME280;40783;49.710;8.842;2023-02-20T11:16:20;99916.41;;;9.41;100.00
52927;BME280;40783;49.710;8.842;2023-02-20T11:18:46;99904.91;;;9.41;100.00
52927;BME280;40783;49.710;8.842;2023-02-20T11:21:23;99906.34;;;9.45;100.00
52927;BME280;40783;49.710;8.842;2023-02-20T11:23:56;99906.34;;;9.45;100.00
52927;BME280;40783;49.710;8.842;2023-02-20T11:31:33;99893.59;;;9.58;100.00
52927;BME280;40783;49.710;8.842;2023-02-20T11:34:01;99897.03;;;9.70;100.00
52927;BME280;40783;49.710;8.842;2023-02-20T11:36:30;99886.63;;;9.67;100.00
52927;BME280;40783;49.710;8.842;2023-02-20T11:38:59;99885.94;;;9.75;100.00
52927;BME280;40783;49.710;8.842;2023-02-20T11:41:34;99867.16;;;9.86;100.00
52927;BME280;40783;49.710;8.842;2023-02-20T11:46:37;99873.91;;;9.90;100.00
52927;BME280;40783;49.710;8.842;2023-02-20T11:54:05;99852.81;;;9.97;100.00
52927;BME280;40783;49.710;8.842;2023-02-20T11:56:33;99849.75;;;10.02;100.00
52927;BME280;40783;49.710;8.842;2023-02-20T12:01:42;99837.94;;;10.14;100.00
52927;BME280;40783;49.710;8.842;2023-02-20T12:04:17;99831.75;;;10.23;100.00
52927;BME280;40783;49.710;8.842;2023-02-20T12:06:42;99820.53;;;10.30;100.00
52927;BME280;40783;49.710;8.842;2023-02-20T12:09:12;99824.44;;;10.35;100.00
52927;BME280;40783;49.710;8.842;2023-02-20T12:11:39;99818.56;;;10.32;100.00
52927;BME280;40783;49.710;8.842;2023-02-20T12:14:05;99806.44;;;10.37;100.00
52927;BME280;40783;49.710;8.842;2023-02-20T12:29:56;99785.03;;;10.87;92.84
52927;BME280;40783;49.710;8.842;2023-02-20T12:37:55;99763.00;;;11.12;89.75
52927;BME280;40783;49.710;8.842;2023-02-20T12:40:27;99771.69;;;11.14;96.84
52927;BME280;40783;49.710;8.842;2023-02-20T12:45:29;99763.97;;;11.11;99.83
52927;BME280;40783;49.710;8.842;2023-02-20T12:48:11;99757.63;;;11.12;100.00
52927;BME280;40783;49.710;8.842;2023-02-20T12:58:29;99756.94;;;11.01;100.00
52927;BME280;40783;49.710;8.842;2023-02-20T13:01:11;99742.75;;;11.00;100.00
52927;BME280;40783;49.710;8.842;2023-02-20T13:06:41;99746.53;;;11.07;100.00
52927;BME280;40783;49.710;8.842;2023-02-20T13:12:12;99736.81;;;11.06;100.00
52927;BME280;40783;49.710;8.842;2023-02-20T13:25:44;99722.91;;;11.21;94.38
52927;BME280;40783;49.710;8.842;2023-02-20T13:33:30;99716.84;;;11.28;84.66
52927;BME280;40783;49.710;8.842;2023-02-20T13:47:01;99701.94;;;11.44;78.77
52927;BME280;40783;49.710;8.842;2023-02-20T13:54:54;99694.13;;;11.33;76.88
52927;BME280;40783;49.710;8.842;2023-02-20T13:57:20;99689.31;;;11.36;75.49
52927;BME280;40783;49.710;8.842;2023-02-20T13:59:48;99688.47;;;11.36;73.72
52927;BME280;40783;49.710;8.842;2023-02-20T14:02:20;99680.88;;;11.31;73.37
52927;BME280;40783;49.710;8.842;2023-02-20T14:04:54;99673.31;;;11.26;74.28
52927;BME280;40783;49.710;8.842;2023-02-20T14:07:32;99674.44;;;11.24;74.73
52927;BME280;40783;49.710;8.842;2023-02-20T14:10:02;99676.72;;;11.19;75.84
52927;BME280;40783;49.710;8.842;2023-02-20T14:12:28;99669.97;;;11.14;79.13
52927;BME280;40783;49.710;8.842;2023-02-20T14:14:53;99659.25;;;11.14;77.40
52927;BME280;40783;49.710;8.842;2023-02-20T14:17:22;99656.69;;;11.23;78.45
52927;BME280;40783;49.710;8.842;2023-02-20T14:19:48;99655.38;;;11.27;76.18
52927;BME280;40783;49.710;8.842;2023-02-20T14:24:39;99642.59;;;11.21;74.73
52927;BME280;40783;49.710;8.842;2023-02-20T14:27:22;99644.06;;;11.15;73.50
52927;BME280;40783;49.710;8.842;2023-02-20T14:29:48;99637.84;;;11.14;72.24
52927;BME280;40783;49.710;8.842;2023-02-20T14:32:27;99624.56;;;11.23;72.39
52927;BME280;40783;49.710;8.842;2023-02-20T14:34:55;99620.88;;;11.24;73.25
52927;BME280;40783;49.710;8.842;2023-02-20T14:42:27;99613.38;;;11.09;76.45
52927;BME280;40783;49.710;8.842;2023-02-20T14:44:56;99604.66;;;11.07;76.66
52927;BME280;40783;49.710;8.842;2023-02-20T14:47:22;99604.59;;;11.17;77.86
52927;BME280;40783;49.710;8.842;2023-02-20T14:49:50;99589.34;;;11.18;77.02
52927;BME280;40783;49.710;8.842;2023-02-20T14:52:19;99584.31;;;11.14;78.68
52927;BME280;40783;49.710;8.842;2023-02-20T14:57:40;99576.97;;;11.17;76.69
52927;BME280;40783;49.710;8.842;2023-02-20T15:00:29;99582.63;;;11.13;79.21
52927;BME280;40783;49.710;8.842;2023-02-20T15:02:54;99573.59;;;11.14;77.99
52927;BME280;40783;49.710;8.842;2023-02-20T15:05:53;99574.97;;;11.19;76.45
52927;BME280;40783;49.710;8.842;2023-02-20T15:08:53;99571.91;;;11.13;76.04
52927;BME280;40783;49.710;8.842;2023-02-20T15:11:33;99574.22;;;11.08;77.84
52927;BME280;40783;49.710;8.842;2023-02-20T15:13:51;99568.50;;;11.03;79.57
52927;BME280;40783;49.710;8.842;2023-02-20T15:16:22;99569.19;;;11.05;77.68
52927;BME280;40783;49.710;8.842;2023-02-20T15:18:48;99557.88;;;11.11;76.86
52927;BME280;40783;49.710;8.842;2023-02-20T15:21:29;99554.50;;;11.09;77.67
52927;BME280;40783;49.710;8.842;2023-02-20T15:24:09;99546.31;;;11.11;76.54
52927;BME280;40783;49.710;8.842;2023-02-20T15:26:35;99555.84;;;11.13;75.78
52927;BME280;40783;49.710;8.842;2023-02-20T15:34:26;99552.56;;;11.02;75.76
52927;BME280;40783;49.710;8.842;2023-02-20T15:36:51;99546.69;;;10.98;75.41